createdAt,value
2019-05-23T00:01:49.735Z,100450.01
2019-05-23T00:04:45.624Z,100459.15
2019-05-23T00:07:35.834Z,100460.16
2019-05-23T00:10:25.957Z,100461.59
2019-05-23T00:13:01.318Z,100456.77
2019-05-23T00:15:44.032Z,100454.30
2019-05-23T00:18:14.341Z,100454.34
2019-05-23T00:20:46.028Z,100453.73
2019-05-23T00:23:17.004Z,100451.96
2019-05-23T00:25:49.023Z,100448.00
2019-05-23T00:28:22.485Z,100443.92
2019-05-23T00:30:54.521Z,100445.50
2019-05-23T00:33:29.278Z,100444.80
2019-05-23T00:35:59.653Z,100442.44
2019-05-23T00:38:29.936Z,100444.01
2019-05-23T00:41:00.417Z,100443.04
2019-05-23T00:43:31.059Z,100439.13
2019-05-23T00:46:01.394Z,100433.09
2019-05-23T00:48:34.088Z,100431.14
2019-05-23T00:51:07.351Z,100432.97
2019-05-23T00:53:39.019Z,100434.56
2019-05-23T00:56:09.764Z,100431.38
2019-05-23T00:58:40.584Z,100432.75
2019-05-23T01:01:11.661Z,100433.74
2019-05-23T01:03:41.952Z,100432.00
2019-05-23T01:06:14.343Z,100434.89
2019-05-23T01:08:44.653Z,100432.48
2019-05-23T01:11:16.428Z,100435.91
2019-05-23T01:13:47.001Z,100435.67
2019-05-23T01:16:18.955Z,100434.50
2019-05-23T01:18:52.126Z,100432.66
2019-05-23T01:21:30.043Z,100432.55
2019-05-23T01:24:01.880Z,100434.06
2019-05-23T01:26:33.049Z,100432.22
2019-05-23T01:29:03.404Z,100431.35
2019-05-23T01:31:35.356Z,100438.88
2019-05-23T01:34:05.738Z,100437.20
2019-05-23T01:36:37.560Z,100438.72
2019-05-23T01:39:10.435Z,100434.34
2019-05-23T01:41:41.437Z,100437.75
2019-05-23T01:44:13.227Z,100437.66
2019-05-23T01:46:44.002Z,100431.01
2019-05-23T01:49:15.482Z,100432.73
2019-05-23T01:51:45.777Z,100435.64
2019-05-23T01:54:16.090Z,100431.25
2019-05-23T01:56:48.537Z,100434.31
2019-05-23T01:59:19.436Z,100435.80
2019-05-23T02:01:49.851Z,100436.67
2019-05-23T02:04:20.085Z,100432.67
2019-05-23T02:06:51.377Z,100430.95
2019-05-23T02:09:22.454Z,100436.38
2019-05-23T02:11:54.674Z,100434.66
2019-05-23T02:14:25.129Z,100434.91
2019-05-23T02:16:56.303Z,100437.17
2019-05-23T02:19:28.296Z,100432.03
2019-05-23T02:21:58.910Z,100428.98
2019-05-23T02:24:29.897Z,100429.05
2019-05-23T02:27:01.650Z,100428.59
2019-05-23T02:29:32.462Z,100427.70
2019-05-23T02:32:03.686Z,100427.01
2019-05-23T02:34:34.133Z,100430.50
2019-05-23T02:37:06.017Z,100430.63
2019-05-23T02:39:37.881Z,100427.92
2019-05-23T02:42:12.382Z,100429.15
2019-05-23T02:44:44.174Z,100430.42
2019-05-23T02:47:16.048Z,100430.86
2019-05-23T02:49:48.258Z,100431.50
2019-05-23T02:52:35.004Z,100433.37
2019-05-23T02:55:10.010Z,100431.64
2019-05-23T02:57:40.863Z,100429.94
2019-05-23T03:00:54.292Z,100427.84
2019-05-23T03:03:27.711Z,100427.13
2019-05-23T03:05:59.660Z,100423.27
2019-05-23T03:08:32.527Z,100424.49
2019-05-23T03:11:29.013Z,100427.98
2019-05-23T03:13:59.907Z,100423.28
2019-05-23T03:16:31.929Z,100427.59
2019-05-23T03:19:07.174Z,100421.05
2019-05-23T03:21:37.617Z,100423.77
2019-05-23T03:24:07.860Z,100424.88
2019-05-23T03:26:58.306Z,100426.92
2019-05-23T03:29:30.672Z,100426.28
2019-05-23T03:32:03.632Z,100428.98
2019-05-23T03:34:35.766Z,100428.70
2019-05-23T03:37:07.686Z,100424.41
2019-05-23T03:39:37.983Z,100425.52
2019-05-23T03:42:09.670Z,100425.73
2019-05-23T03:44:40.569Z,100422.98
2019-05-23T03:47:12.423Z,100423.02
2019-05-23T03:49:43.083Z,100417.78
2019-05-23T03:52:15.274Z,100422.50
2019-05-23T03:54:47.167Z,100420.52
2019-05-23T03:57:19.025Z,100422.05
2019-05-23T03:59:50.678Z,100426.05
2019-05-23T04:02:22.797Z,100424.95
2019-05-23T04:04:54.366Z,100421.82
2019-05-23T04:07:24.813Z,100419.43
2019-05-23T04:09:55.117Z,100422.77
2019-05-23T04:12:25.328Z,100420.94
2019-05-23T04:14:55.829Z,100419.82
2019-05-23T04:17:26.207Z,100419.14
2019-05-23T04:19:56.584Z,100420.89
2019-05-23T04:22:26.808Z,100420.25
2019-05-23T04:25:01.818Z,100420.08
2019-05-23T04:27:30.102Z,100421.80
2019-05-23T04:30:00.439Z,100426.06
2019-05-23T04:32:32.492Z,100432.58
2019-05-23T04:35:02.890Z,100426.94
2019-05-23T04:37:33.167Z,100421.16
2019-05-23T04:40:09.165Z,100425.35
2019-05-23T04:42:40.041Z,100423.71
2019-05-23T04:45:10.389Z,100427.02
2019-05-23T04:47:40.924Z,100426.36
2019-05-23T04:50:13.692Z,100425.85
2019-05-23T04:52:43.902Z,100422.70
2019-05-23T04:55:15.575Z,100429.59
2019-05-23T04:57:47.050Z,100427.60
2019-05-23T05:00:19.243Z,100424.15
2019-05-23T05:02:49.816Z,100420.31
2019-05-23T05:05:20.545Z,100424.89
2019-05-23T05:07:50.830Z,100416.44
2019-05-23T05:10:23.877Z,100416.17
2019-05-23T05:12:54.609Z,100419.59
2019-05-23T05:15:24.987Z,100418.39
2019-05-23T05:17:55.443Z,100413.03
2019-05-23T05:20:25.678Z,100423.37
2019-05-23T05:22:55.980Z,100421.66
2019-05-23T05:25:26.350Z,100425.41
2019-05-23T05:27:56.768Z,100422.70
2019-05-23T05:30:27.573Z,100424.56
2019-05-23T05:33:01.095Z,100423.86
2019-05-23T05:35:33.128Z,100428.23
2019-05-23T05:38:03.434Z,100428.13
2019-05-23T05:40:34.573Z,100423.95
2019-05-23T05:43:04.806Z,100426.36
2019-05-23T05:45:35.034Z,100421.64
2019-05-23T05:48:05.907Z,100423.42
2019-05-23T05:50:36.222Z,100420.98
2019-05-23T05:53:07.273Z,100423.54
2019-05-23T05:55:38.621Z,100425.67
2019-05-23T05:58:08.902Z,100426.56
2019-05-23T06:00:40.798Z,100431.22
2019-05-23T06:03:11.172Z,100429.85
2019-05-23T06:05:49.120Z,100430.09
2019-05-23T06:08:21.022Z,100424.93
2019-05-23T06:10:51.339Z,100426.47
2019-05-23T06:13:21.713Z,100431.98
2019-05-23T06:15:53.302Z,100428.98
2019-05-23T06:18:23.603Z,100429.05
2019-05-23T06:20:54.334Z,100427.61
2019-05-23T06:23:24.886Z,100427.11
2019-05-23T06:25:55.195Z,100429.79
2019-05-23T06:28:25.545Z,100422.48
2019-05-23T06:30:56.053Z,100422.98
2019-05-23T06:33:26.267Z,100427.30
2019-05-23T06:35:56.500Z,100428.41
2019-05-23T06:38:26.771Z,100429.76
2019-05-23T06:40:57.037Z,100429.28
2019-05-23T06:43:27.464Z,100425.67
2019-05-23T06:45:58.550Z,100430.01
2019-05-23T06:48:29.736Z,100429.72
2019-05-23T06:50:59.999Z,100428.20
2019-05-23T06:53:30.232Z,100429.52
2019-05-23T06:56:00.435Z,100423.06
2019-05-23T06:58:30.848Z,100425.02
2019-05-23T07:01:01.149Z,100424.48
2019-05-23T07:03:42.447Z,100428.00
2019-05-23T07:06:05.761Z,100416.63
2019-05-23T07:08:35.991Z,100415.43
2019-05-23T07:11:06.306Z,100419.72
2019-05-23T07:13:37.138Z,100421.41
2019-05-23T07:16:07.421Z,100422.56
2019-05-23T07:18:37.960Z,100423.27
2019-05-23T07:21:09.085Z,100427.86
2019-05-23T07:23:39.399Z,100430.21
2019-05-23T07:26:09.601Z,100431.80
2019-05-23T07:28:42.456Z,100432.70
2019-05-23T07:31:13.534Z,100427.31
2019-05-23T07:34:00.430Z,100430.75
2019-05-23T07:36:15.831Z,100433.53
2019-05-23T07:38:46.121Z,100436.53
2019-05-23T07:41:16.863Z,100435.20
2019-05-23T07:43:48.256Z,100432.81
2019-05-23T07:46:18.868Z,100432.00
2019-05-23T07:48:49.460Z,100429.08
2019-05-23T07:51:19.665Z,100422.66
2019-05-23T07:54:09.568Z,100421.80
2019-05-23T07:56:41.645Z,100420.51
2019-05-23T07:59:11.887Z,100419.38
2019-05-23T08:01:44.883Z,100416.34
2019-05-23T08:04:21.755Z,100418.56
2019-05-23T08:06:48.999Z,100420.49
2019-05-23T08:09:21.309Z,100415.08
2019-05-23T08:11:51.892Z,100414.83
2019-05-23T08:14:22.132Z,100413.14
2019-05-23T08:16:53.021Z,100412.22
2019-05-23T08:19:23.595Z,100409.14
2019-05-23T08:21:53.810Z,100410.41
2019-05-23T08:24:24.456Z,100408.91
2019-05-23T08:26:55.808Z,100400.11
2019-05-23T08:29:27.036Z,100402.73
2019-05-23T08:31:58.213Z,100406.47
2019-05-23T08:34:40.511Z,100405.92
2019-05-23T08:37:01.068Z,100402.48
2019-05-23T08:39:32.687Z,100401.31
2019-05-23T08:42:04.465Z,100400.12
2019-05-23T08:44:34.697Z,100401.34
2019-05-23T08:47:06.550Z,100397.60
2019-05-23T08:49:36.776Z,100400.43
2019-05-23T08:52:06.993Z,100394.97
2019-05-23T08:54:37.441Z,100392.48
2019-05-23T08:57:08.497Z,100388.33
2019-05-23T08:59:38.908Z,100390.55
2019-05-23T09:02:09.688Z,100382.73
2019-05-23T09:04:39.986Z,100381.23
2019-05-23T09:07:12.360Z,100378.77
2019-05-23T09:09:43.241Z,100376.13
2019-05-23T09:12:13.590Z,100370.58
2019-05-23T09:14:44.369Z,100373.79
2019-05-23T09:17:14.646Z,100374.35
2019-05-23T09:19:45.945Z,100373.88
2019-05-23T09:22:16.154Z,100379.80
2019-05-23T09:24:46.453Z,100374.84
2019-05-23T09:27:16.866Z,100375.82
2019-05-23T09:29:47.129Z,100370.59
2019-05-23T09:32:17.660Z,100369.55
2019-05-23T09:34:47.897Z,100370.14
2019-05-23T09:37:18.583Z,100364.41
2019-05-23T09:39:50.088Z,100364.92
2019-05-23T09:42:20.474Z,100370.44
2019-05-23T09:44:50.780Z,100373.03
2019-05-23T09:47:20.988Z,100373.80
2019-05-23T09:49:54.437Z,100368.00
2019-05-23T09:52:25.284Z,100359.50
2019-05-23T09:54:55.653Z,100356.05
2019-05-23T09:57:25.934Z,100354.56
2019-05-23T09:59:57.027Z,100356.67
2019-05-23T10:02:28.287Z,100350.20
2019-05-23T10:04:59.053Z,100351.94
2019-05-23T10:07:29.694Z,100353.58
2019-05-23T10:09:59.928Z,100355.22
2019-05-23T10:12:30.142Z,100351.63
2019-05-23T10:15:00.644Z,100345.86
2019-05-23T10:17:31.395Z,100348.41
2019-05-23T10:20:01.690Z,100346.16
2019-05-23T10:22:31.953Z,100346.45
2019-05-23T10:25:02.251Z,100346.97
2019-05-23T10:27:32.535Z,100344.38
2019-05-23T10:30:03.030Z,100345.16
2019-05-23T10:32:33.391Z,100336.26
2019-05-23T10:35:04.564Z,100331.69
2019-05-23T10:37:34.837Z,100324.95
2019-05-23T10:40:05.284Z,100325.54
2019-05-23T10:42:35.559Z,100327.52
2019-05-23T10:45:08.942Z,100328.83
2019-05-23T10:47:39.249Z,100324.02
2019-05-23T10:50:10.353Z,100323.44
2019-05-23T10:52:40.907Z,100320.94
2019-05-23T10:55:11.127Z,100315.62
2019-05-23T10:57:41.424Z,100315.70
2019-05-23T11:00:13.182Z,100308.13
2019-05-23T11:02:43.758Z,100307.63
2019-05-23T11:05:14.553Z,100308.35
2019-05-23T11:07:45.178Z,100300.84
2019-05-23T11:10:16.481Z,100291.80
2019-05-23T11:12:46.849Z,100293.39
2019-05-23T11:15:17.180Z,100296.58
2019-05-23T11:17:47.498Z,100289.79
2019-05-23T11:20:19.755Z,100287.56
2019-05-23T11:22:50.053Z,100283.88
2019-05-23T11:25:20.662Z,100283.87
2019-05-23T11:27:50.893Z,100285.34
2019-05-23T11:30:32.213Z,100291.80
2019-05-23T11:33:04.020Z,100288.15
2019-05-23T11:35:34.636Z,100287.27
2019-05-23T11:38:04.991Z,100285.29
2019-05-23T11:40:35.460Z,100279.66
2019-05-23T11:43:05.669Z,100278.36
2019-05-23T11:45:45.626Z,100276.41
2019-05-23T11:48:09.747Z,100275.19
2019-05-23T11:50:40.030Z,100267.27
2019-05-23T11:53:10.416Z,100264.64
2019-05-23T11:55:40.712Z,100263.84
2019-05-23T11:58:11.600Z,100265.05
2019-05-23T12:01:03.259Z,100266.77
2019-05-23T12:03:33.556Z,100265.72
2019-05-23T12:06:06.029Z,100261.98
2019-05-23T12:08:36.584Z,100256.26
2019-05-23T12:11:06.885Z,100253.64
2019-05-23T12:13:37.171Z,100252.61
2019-05-23T12:16:08.383Z,100251.16
2019-05-23T12:18:38.586Z,100246.59
2019-05-23T12:21:08.826Z,100244.25
2019-05-23T12:23:39.202Z,100233.06
2019-05-23T12:26:09.407Z,100238.19
2019-05-23T12:28:39.813Z,100236.56
2019-05-23T12:31:10.726Z,100229.91
2019-05-23T12:33:40.963Z,100229.59
2019-05-23T12:36:12.012Z,100228.98
2019-05-23T12:38:42.253Z,100233.22
2019-05-23T12:41:13.596Z,100232.91
2019-05-23T12:43:44.912Z,100232.19
2019-05-23T12:46:15.166Z,100224.52
2019-05-23T12:48:49.588Z,100223.63
2019-05-23T12:51:33.534Z,100221.61
2019-05-23T12:54:03.779Z,100218.17
2019-05-23T12:56:34.657Z,100209.22
2019-05-23T12:59:05.744Z,100209.80
2019-05-23T13:01:37.726Z,100209.16
2019-05-23T13:04:10.231Z,100208.27
2019-05-23T13:06:41.450Z,100201.88
2019-05-23T13:09:11.786Z,100203.50
2019-05-23T13:11:42.228Z,100204.45
2019-05-23T13:14:12.633Z,100211.82
2019-05-23T13:16:42.988Z,100208.73
2019-05-23T13:19:13.437Z,100203.00
2019-05-23T13:21:43.889Z,100195.61
2019-05-23T13:24:14.140Z,100197.95
2019-05-23T13:26:44.413Z,100193.34
2019-05-23T13:29:14.735Z,100197.03
2019-05-23T13:31:45.312Z,100192.39
2019-05-23T13:34:15.542Z,100195.30
2019-05-23T13:36:45.785Z,100194.13
2019-05-23T13:39:16.682Z,100190.05
2019-05-23T13:41:46.929Z,100191.72
2019-05-23T13:44:32.805Z,100187.80
2019-05-23T13:46:49.235Z,100188.42
2019-05-23T13:49:19.544Z,100184.13
2019-05-23T13:51:49.929Z,100181.02
2019-05-23T13:54:21.107Z,100181.73
2019-05-23T13:56:51.698Z,100178.87
2019-05-23T13:59:22.243Z,100174.57
2019-05-23T14:01:52.977Z,100174.30
2019-05-23T14:04:23.283Z,100174.42
2019-05-23T14:06:53.593Z,100172.78
2019-05-23T14:09:25.685Z,100166.55
2019-05-23T14:12:20.076Z,100166.72
2019-05-23T14:14:28.153Z,100162.10
2019-05-23T14:16:59.999Z,100158.41
2019-05-23T14:19:30.302Z,100153.95
2019-05-23T14:22:00.520Z,100150.45
2019-05-23T14:24:30.816Z,100149.55
2019-05-23T14:27:08.353Z,100143.18
2019-05-23T14:29:38.666Z,100137.94
2019-05-23T14:32:22.375Z,100139.03
2019-05-23T14:34:54.219Z,100130.19
2019-05-23T14:37:31.768Z,100128.22
2019-05-23T14:40:03.667Z,100125.91
2019-05-23T14:42:53.260Z,100125.15
2019-05-23T14:45:40.369Z,100123.39
2019-05-23T14:48:27.472Z,100118.22
2019-05-23T14:50:59.336Z,100111.95
2019-05-23T14:53:33.920Z,100108.45
2019-05-23T14:56:04.146Z,100109.59
2019-05-23T14:58:34.525Z,100110.73
2019-05-23T15:01:05.949Z,100108.64
2019-05-23T15:03:36.386Z,100107.04
2019-05-23T15:06:06.624Z,100106.70
2019-05-23T15:08:50.602Z,100106.44
2019-05-23T15:11:09.214Z,100102.28
2019-05-23T15:13:39.433Z,100096.97
2019-05-23T15:16:10.637Z,100094.78
2019-05-23T15:18:40.902Z,100092.16
2019-05-23T15:21:11.377Z,100088.59
2019-05-23T15:23:41.598Z,100089.84
2019-05-23T15:26:22.493Z,100088.59
2019-05-23T15:28:43.959Z,100084.98
2019-05-23T15:31:14.260Z,100086.83
2019-05-23T15:33:44.490Z,100079.36
2019-05-23T15:36:14.778Z,100076.89
2019-05-23T15:38:44.989Z,100072.60
2019-05-23T15:41:15.218Z,100079.88
2019-05-23T15:43:45.427Z,100076.36
2019-05-23T15:46:15.662Z,100074.41
2019-05-23T15:48:45.942Z,100071.19
2019-05-23T15:51:17.814Z,100069.86
2019-05-23T15:53:49.667Z,100071.35
2019-05-23T15:56:28.203Z,100065.47
2019-05-23T15:59:07.142Z,100069.02
2019-05-23T16:01:39.029Z,100063.62
2019-05-23T16:04:16.738Z,100057.09
2019-05-23T16:06:46.962Z,100056.09
2019-05-23T16:09:29.741Z,100052.53
2019-05-23T16:11:50.022Z,100055.79
2019-05-23T16:14:21.055Z,100052.73
2019-05-23T16:16:56.175Z,100052.02
2019-05-23T16:19:24.020Z,100052.03
2019-05-23T16:21:54.260Z,100047.34
